createdAt,value
2019-02-06T00:00:55.603Z,-1
2019-02-06T00:02:02.805Z,-1
2019-02-06T00:03:09.761Z,-1.1
2019-02-06T00:04:16.673Z,-1.1
2019-02-06T00:05:23.859Z,-1.1
2019-02-06T00:06:30.817Z,-1.2
2019-02-06T00:07:38.012Z,-1.2
2019-02-06T00:08:45.265Z,-1.2
2019-02-06T00:09:53.515Z,-1.2
2019-02-06T00:11:01.698Z,-1.2
2019-02-06T00:12:10.173Z,-1.3
2019-02-06T00:13:18.457Z,-1.3
2019-02-06T00:14:26.538Z,-1.4
2019-02-06T00:15:33.801Z,-1.4
2019-02-06T00:16:41.044Z,-1.4
2019-02-06T00:17:48.386Z,-1.4
2019-02-06T00:18:55.626Z,-1.4
2019-02-06T00:20:02.919Z,-1.5
2019-02-06T00:21:10.109Z,-1.5
2019-02-06T00:22:17.397Z,-1.5
2019-02-06T00:23:24.610Z,-1.5
2019-02-06T00:24:31.782Z,-1.5
2019-02-06T00:25:38.703Z,-1.5
2019-02-06T00:26:45.893Z,-1.6
2019-02-06T00:27:52.809Z,-1.6
2019-02-06T00:28:59.999Z,-1.6
2019-02-06T00:30:07.188Z,-1.7
2019-02-06T00:31:14.377Z,-1.7
2019-02-06T00:32:21.569Z,-1.8
2019-02-06T00:33:28.484Z,-1.8
2019-02-06T00:34:35.684Z,-1.8
2019-02-06T00:35:42.600Z,-1.8
2019-02-06T00:36:49.519Z,-1.8
2019-02-06T00:37:55.887Z,-1.8
2019-02-06T00:39:02.526Z,-1.8
2019-02-06T00:40:09.714Z,-1.9
2019-02-06T00:41:16.908Z,-1.9
2019-02-06T00:42:23.828Z,-1.9
2019-02-06T00:43:31.020Z,-2
2019-02-06T00:44:38.033Z,-2
2019-02-06T00:45:45.230Z,-2
2019-02-06T00:46:52.423Z,-2
2019-02-06T00:47:59.615Z,-2
2019-02-06T00:49:06.821Z,-2
2019-02-06T00:50:14.013Z,-2
2019-02-06T00:51:21.407Z,-2.1
2019-02-06T00:52:28.927Z,-2.1
2019-02-06T00:53:36.973Z,-2
2019-02-06T00:54:45.073Z,-2
2019-02-06T00:55:53.447Z,-2.1
2019-02-06T00:57:01.862Z,-2.1
2019-02-06T00:58:10.021Z,-2.2
2019-02-06T00:59:18.224Z,-2.2
2019-02-06T01:00:26.093Z,-2.3
2019-02-06T01:01:33.681Z,-2.3
2019-02-06T01:02:40.872Z,-2.4
2019-02-06T01:03:48.089Z,-2.4
2019-02-06T01:04:55.328Z,-2.4
2019-02-06T01:06:02.250Z,-2.4
2019-02-06T01:07:09.437Z,-2.3
2019-02-06T01:08:16.726Z,-2.3
2019-02-06T01:09:23.922Z,-2.3
2019-02-06T01:10:31.112Z,-2.3
2019-02-06T01:11:38.305Z,-2.3
2019-02-06T01:12:45.222Z,-2.3
2019-02-06T01:13:52.416Z,-2.4
2019-02-06T01:14:59.605Z,-2.4
2019-02-06T01:16:06.897Z,-2.4
2019-02-06T01:17:14.088Z,-2.5
2019-02-06T01:18:20.998Z,-2.4
2019-02-06T01:19:28.186Z,-2.5
2019-02-06T01:20:35.133Z,-2.5
2019-02-06T01:21:42.320Z,-2.5
2019-02-06T01:22:49.240Z,-2.5
2019-02-06T01:23:56.431Z,-2.5
2019-02-06T01:25:03.340Z,-2.5
2019-02-06T01:26:10.230Z,-2.5
2019-02-06T01:27:17.529Z,-2.5
2019-02-06T01:28:24.441Z,-2.6
2019-02-06T01:29:31.739Z,-2.6
2019-02-06T01:30:38.924Z,-2.6
2019-02-06T01:31:45.841Z,-2.6
2019-02-06T01:32:52.757Z,-2.7
2019-02-06T01:33:59.621Z,-2.7
2019-02-06T01:35:07.081Z,-2.7
2019-02-06T01:36:15.257Z,-2.7
2019-02-06T01:37:23.380Z,-2.7
2019-02-06T01:38:31.331Z,-2.8
2019-02-06T01:39:39.323Z,-2.7
2019-02-06T01:40:47.097Z,-2.8
2019-02-06T01:41:54.347Z,-2.8
2019-02-06T01:43:01.539Z,-2.7
2019-02-06T01:44:08.727Z,-2.7
2019-02-06T01:45:15.644Z,-2.7
2019-02-06T01:46:22.569Z,-2.7
2019-02-06T01:47:29.486Z,-2.7
2019-02-06T01:48:36.400Z,-2.7
2019-02-06T01:49:45.412Z,-2.7
2019-02-06T01:50:52.342Z,-2.7
2019-02-06T01:51:59.528Z,-2.8
2019-02-06T01:53:06.719Z,-2.8
2019-02-06T01:54:13.635Z,-2.8
2019-02-06T01:55:20.823Z,-2.8
2019-02-06T01:56:28.070Z,-2.8
2019-02-06T01:57:35.263Z,-2.9
2019-02-06T01:58:42.174Z,-2.9
2019-02-06T01:59:49.360Z,-2.9
2019-02-06T02:00:56.271Z,-3
2019-02-06T02:02:03.462Z,-3
2019-02-06T02:03:10.649Z,-3.1
2019-02-06T02:04:17.836Z,-3.1
2019-02-06T02:05:25.025Z,-3.1
2019-02-06T02:06:32.218Z,-3.1
2019-02-06T02:07:39.405Z,-3.1
2019-02-06T02:08:46.592Z,-3.1
2019-02-06T02:09:53.508Z,-3.1
2019-02-06T02:11:00.699Z,-3.1
2019-02-06T02:12:07.886Z,-3.1
2019-02-06T02:13:14.798Z,-3.1
2019-02-06T02:14:21.713Z,-3.2
2019-02-06T02:15:29.195Z,-3.2
2019-02-06T02:16:36.804Z,-3.2
2019-02-06T02:17:44.527Z,-3.3
2019-02-06T02:18:52.523Z,-3.4
2019-02-06T02:20:00.793Z,-3.4
2019-02-06T02:21:09.247Z,-3.5
2019-02-06T02:22:17.449Z,-3.5
2019-02-06T02:23:25.488Z,-3.4
2019-02-06T02:24:33.648Z,-3.4
2019-02-06T02:25:41.417Z,-3.4
2019-02-06T02:26:48.330Z,-3.4
2019-02-06T02:27:55.524Z,-3.4
2019-02-06T02:29:02.713Z,-3.4
2019-02-06T02:30:09.905Z,-3.4
2019-02-06T02:31:17.327Z,-3.5
2019-02-06T02:32:24.510Z,-3.5
2019-02-06T02:33:31.708Z,-3.6
2019-02-06T02:34:38.893Z,-3.5
2019-02-06T02:35:45.820Z,-3.5
2019-02-06T02:36:52.735Z,-3.5
2019-02-06T02:37:59.932Z,-3.5
2019-02-06T02:39:07.122Z,-3.5
2019-02-06T02:40:14.309Z,-3.5
2019-02-06T02:41:21.497Z,-3.5
2019-02-06T02:42:28.690Z,-3.5
2019-02-06T02:43:35.609Z,-3.6
2019-02-06T02:44:42.799Z,-3.6
2019-02-06T02:45:49.991Z,-3.6
2019-02-06T02:46:57.190Z,-3.7
2019-02-06T02:48:04.383Z,-3.7
2019-02-06T02:49:11.572Z,-3.7
2019-02-06T02:50:18.786Z,-3.7
2019-02-06T02:51:25.977Z,-3.7
2019-02-06T02:52:33.254Z,-3.7
2019-02-06T02:53:40.448Z,-3.8
2019-02-06T02:54:47.371Z,-3.8
2019-02-06T02:55:54.561Z,-3.8
2019-02-06T02:57:01.748Z,-3.8
2019-02-06T02:58:09.005Z,-3.8
2019-02-06T02:59:15.929Z,-3.8
2019-02-06T03:00:22.851Z,-3.9
2019-02-06T03:01:30.173Z,-3.9
2019-02-06T03:02:37.353Z,-3.9
2019-02-06T03:03:44.700Z,-3.8
2019-02-06T03:04:51.956Z,-3.9
2019-02-06T03:05:59.909Z,-3.9
2019-02-06T03:07:07.685Z,-3.9
2019-02-06T03:08:15.639Z,-4
2019-02-06T03:09:23.945Z,-4
2019-02-06T03:10:32.121Z,-4
2019-02-06T03:11:40.245Z,-4
2019-02-06T03:12:47.820Z,-3.9
2019-02-06T03:13:55.113Z,-4
2019-02-06T03:15:02.048Z,-3.9
2019-02-06T03:16:09.237Z,-4
2019-02-06T03:17:16.424Z,-4
2019-02-06T03:18:23.334Z,-4.1
2019-02-06T03:19:30.527Z,-4.1
2019-02-06T03:20:37.441Z,-4.2
2019-02-06T03:21:44.365Z,-4.2
2019-02-06T03:22:51.555Z,-4.2
2019-02-06T03:23:58.741Z,-4.2
2019-02-06T03:25:05.661Z,-4.2
2019-02-06T03:26:12.845Z,-4.3
2019-02-06T03:27:20.041Z,-4.2
2019-02-06T03:28:26.961Z,-4.2
2019-02-06T03:29:34.154Z,-4.1
2019-02-06T03:30:41.346Z,-4.1
2019-02-06T03:31:48.537Z,-4.1
2019-02-06T03:32:55.720Z,-4.1
2019-02-06T03:34:05.540Z,-4.1
2019-02-06T03:35:12.904Z,-4.1
2019-02-06T03:36:19.814Z,-4.1
2019-02-06T03:37:26.456Z,-4.2
2019-02-06T03:38:33.641Z,-4.2
2019-02-06T03:39:40.554Z,-4.2
2019-02-06T03:40:47.470Z,-4.3
2019-02-06T03:41:54.654Z,-4.3
2019-02-06T03:43:01.849Z,-4.2
2019-02-06T03:44:09.067Z,-4.2
2019-02-06T03:45:16.245Z,-4.2
2019-02-06T03:46:23.176Z,-4.3
2019-02-06T03:47:30.354Z,-4.3
2019-02-06T03:48:37.824Z,-4.4
2019-02-06T03:49:45.689Z,-4.4
2019-02-06T03:50:54.001Z,-4.4
2019-02-06T03:52:01.995Z,-4.5
2019-02-06T03:53:11.876Z,-4.5
2019-02-06T03:54:19.884Z,-4.5
2019-02-06T03:55:28.247Z,-4.4
2019-02-06T03:56:36.663Z,-4.4
2019-02-06T03:57:45.247Z,-4.4
2019-02-06T03:58:53.528Z,-4.4
2019-02-06T04:00:01.754Z,-4.4
2019-02-06T04:01:12.137Z,-4.4
2019-02-06T04:02:19.907Z,-4.4
2019-02-06T04:03:28.022Z,-4.4
2019-02-06T04:04:34.938Z,-4.5
2019-02-06T04:05:42.129Z,-4.4
2019-02-06T04:07:00.824Z,-4.5
2019-02-06T04:08:09.792Z,-4.5
2019-02-06T04:09:18.037Z,-4.5
2019-02-06T04:10:26.568Z,-4.4
2019-02-06T04:11:35.034Z,-4.5
2019-02-06T04:12:43.369Z,-4.5
2019-02-06T04:13:51.632Z,-4.5
2019-02-06T04:14:59.321Z,-4.5
2019-02-06T04:16:06.650Z,-4.6
2019-02-06T04:17:13.851Z,-4.6
2019-02-06T04:18:20.875Z,-4.6
2019-02-06T04:19:28.052Z,-4.6
2019-02-06T04:20:34.968Z,-4.6
2019-02-06T04:21:42.155Z,-4.5
2019-02-06T04:22:49.462Z,-4.6
2019-02-06T04:23:56.654Z,-4.5
2019-02-06T04:25:03.841Z,-4.5
2019-02-06T04:26:11.036Z,-4.5
2019-02-06T04:27:18.215Z,-4.5
2019-02-06T04:28:25.403Z,-4.5
2019-02-06T04:29:32.322Z,-4.6
2019-02-06T04:30:39.507Z,-4.6
2019-02-06T04:31:46.421Z,-4.6
2019-02-06T04:32:53.621Z,-4.6
2019-02-06T04:34:00.811Z,-4.6
2019-02-06T04:35:07.998Z,-4.6
2019-02-06T04:36:15.008Z,-4.6
2019-02-06T04:37:22.239Z,-4.7
2019-02-06T04:38:29.160Z,-4.7
2019-02-06T04:39:36.077Z,-4.6
2019-02-06T04:40:43.260Z,-4.7
2019-02-06T04:41:50.182Z,-4.6
2019-02-06T04:42:57.371Z,-4.6
2019-02-06T04:44:04.556Z,-4.6
2019-02-06T04:45:11.744Z,-4.6
2019-02-06T04:46:18.658Z,-4.5
2019-02-06T04:47:25.844Z,-4.5
2019-02-06T04:48:33.044Z,-4.5
2019-02-06T04:49:40.243Z,-4.6
2019-02-06T04:50:47.434Z,-4.6
2019-02-06T04:51:54.976Z,-4.6
2019-02-06T04:53:02.580Z,-4.6
2019-02-06T04:54:10.278Z,-4.6
2019-02-06T04:55:18.202Z,-4.6
2019-02-06T04:56:26.432Z,-4.6
2019-02-06T04:57:34.767Z,-4.6
2019-02-06T04:58:42.924Z,-4.5
2019-02-06T23:00:06.154Z,-4.4
2019-02-06T23:01:13.392Z,-4.4
2019-02-06T23:02:20.311Z,-4.4
2019-02-06T23:03:27.499Z,-4.4
2019-02-06T23:04:34.685Z,-4.4
2019-02-06T23:05:41.876Z,-4.4
2019-02-06T23:06:48.789Z,-4.4
2019-02-06T23:07:55.983Z,-4.5
2019-02-06T23:09:05.652Z,-4.5
2019-02-06T23:10:12.862Z,-4.5
2019-02-06T23:11:20.095Z,-4.5
2019-02-06T23:12:27.934Z,-4.6
2019-02-06T23:13:34.855Z,-4.7
2019-02-06T23:14:42.051Z,-4.6
2019-02-06T23:15:49.247Z,-4.6
2019-02-06T23:16:56.433Z,-4.6
2019-02-06T23:18:03.631Z,-4.6
2019-02-06T23:19:10.812Z,-4.6
2019-02-06T23:20:18.038Z,-4.6
2019-02-06T23:21:24.954Z,-4.6
2019-02-06T23:22:31.867Z,-4.6
2019-02-06T23:23:38.784Z,-4.7
2019-02-06T23:24:45.695Z,-4.7
2019-02-06T23:25:52.610Z,-4.7
2019-02-06T23:26:59.793Z,-4.6
2019-02-06T23:28:07.042Z,-4.6
2019-02-06T23:29:14.235Z,-4.6
2019-02-06T23:30:21.487Z,-4.6
2019-02-06T23:31:28.901Z,-4.6
2019-02-06T23:32:36.264Z,-4.6
2019-02-06T23:33:44.451Z,-4.6
2019-02-06T23:34:52.719Z,-4.6
2019-02-06T23:36:01.156Z,-4.7
2019-02-06T23:37:12.185Z,-4.7
2019-02-06T23:38:20.248Z,-4.8
2019-02-06T23:39:28.380Z,-4.8
2019-02-06T23:40:36.753Z,-4.9
2019-02-06T23:41:45.109Z,-4.8
2019-02-06T23:42:53.765Z,-4.8
2019-02-06T23:44:02.149Z,-4.9
2019-02-06T23:45:10.375Z,-4.9
2019-02-06T23:46:18.556Z,-5
2019-02-06T23:47:26.466Z,-4.9
2019-02-06T23:48:36.603Z,-4.8
2019-02-06T23:49:44.778Z,-4.9
2019-02-06T23:50:52.724Z,-4.9
2019-02-06T23:51:59.919Z,-4.9
2019-02-06T23:53:07.110Z,-4.8
2019-02-06T23:54:28.945Z,-4.8
2019-02-06T23:55:36.349Z,-4.8
2019-02-06T23:56:44.176Z,-4.8
2019-02-06T23:57:52.252Z,-4.7
2019-02-06T23:59:00.380Z,-4.6
